Time;durP1;ratioP1;P1;durP2;ratioP2;P2;SDS_P1;SDS_P2;PMS_P1;PMS_P2;Temp;Humidity;BMP_temperature;BMP_pressure;BME280_temperature;BME280_humidity;BME280_pressure;Samples;Min_cycle;Max_cycle;Signal;HPM_P1;HPM_P2
2021/11/23 00:01:51;;;;;;;;;;;;;;;;;;5010516;28;19925;-76
2021/11/23 00:04:18;;;;;;;;;;;;;;;;;;5010495;28;19913;-77
2021/11/23 00:06:44;;;;;;;;;;;;;;;;;;5008626;28;19953;-77
2021/11/23 00:09:10;;;;;;;;;;;;;;;;;;5008532;28;19987;-76
2021/11/23 00:11:36;;;;;;;;;;;;;;;;;;5009064;28;19917;-77
2021/11/23 00:14:02;;;;;;;;;;;;;;;;;;5012756;28;19940;-77
2021/11/23 00:16:28;;;;;;;;;;;;;;;;;;5009984;28;20005;-77
2021/11/23 00:18:53;;;;;;;;;;;;;;;;;;5013032;28;19928;-77
2021/11/23 00:21:19;;;;;;;;;;;;;;;;;;5008891;28;19914;-78
2021/11/23 00:23:45;;;;;;;;;;;;;;;;;;5008399;28;19913;-76
2021/11/23 00:26:11;;;;;;;;;;;;;;;;;;5012589;28;19913;-77
2021/11/23 00:28:37;;;;;;;;;;;;;;;;;;5011338;28;19948;-78
2021/11/23 00:31:03;;;;;;;;;;;;;;;;;;5011163;28;19924;-77
2021/11/23 00:33:31;;;;;;;;;;;;;;;;;;5009102;28;20404;-78
2021/11/23 00:35:57;;;;;;;;;;;;;;;;;;5009978;28;20293;-77
2021/11/23 00:38:23;;;;;;;;;;;;;;;;;;5010157;28;19921;-78
2021/11/23 00:40:49;;;;;;;;;;;;;;;;;;5007609;28;20178;-78
2021/11/23 00:43:15;;;;;;;;;;;;;;;;;;5009070;28;19913;-77
2021/11/23 00:45:41;;;;;;;;;;;;;;;;;;5016740;28;20377;-78
2021/11/23 00:48:07;;;;;;;;;;;;;;;;;;5011971;28;19960;-78
2021/11/23 00:50:33;;;;;;;;;;;;;;;;;;5022666;28;19921;-78
2021/11/23 00:52:59;;;;;;;;;;;;;;;;;;5009793;28;20374;-77
2021/11/23 00:55:25;;;;;;;;;;;;;;;;;;5005016;28;19921;-78
2021/11/23 00:57:51;;;;;;;;;;;;;;;;;;5003544;28;19921;-78
2021/11/23 01:00:17;;;;;;;;;;;;;;;;;;5011585;28;20247;-78
2021/11/23 01:02:42;;;;;;;;;;;;;;;;;;5013337;28;19987;-78
2021/11/23 01:05:09;;;;;;;;;;;;;;;;;;5009347;28;19914;-78
2021/11/23 01:07:35;;;;;;;;;;;;;;;;;;5012627;28;19921;-79
2021/11/23 01:10:00;;;;;;;;;;;;;;;;;;5007200;28;19924;-78
2021/11/23 01:12:26;;;;;;;;;;;;;;;;;;5011744;28;20370;-78
2021/11/23 01:14:52;;;;;;;;;;;;;;;;;;5010171;28;19925;-78
2021/11/23 01:17:18;;;;;;;;;;;;;;;;;;5007391;28;19923;-78
2021/11/23 01:19:44;;;;;;;;;;;;;;;;;;5008126;28;19960;-78
2021/11/23 01:22:10;;;;;;;;;;;;;;;;;;5009916;28;19948;-78
2021/11/23 01:24:36;;;;;;;;;;;;;;;;;;5011131;28;20341;-78
2021/11/23 01:27:02;;;;;;;;;;;;;;;;;;5009964;28;20008;-78
2021/11/23 01:29:28;;;;;;;;;;;;;;;;;;5015709;28;19937;-79
2021/11/23 01:31:54;;;;;;;;;;;;;;;;;;5009778;28;19963;-78
2021/11/23 01:34:20;;;;;;;;;;;;;;;;;;5011118;28;20369;-78
2021/11/23 01:36:46;;;;;;;;;;;;;;;;;;5018625;28;19925;-78
2021/11/23 01:39:12;;;;;;;;;;;;;;;;;;5012993;28;19917;-78
2021/11/23 01:41:37;;;;;;;;;;;;;;;;;;5015896;28;19913;-78
2021/11/23 01:44:03;;;;;;;;;;;;;;;;;;5013285;28;19921;-78
2021/11/23 01:46:29;;;;;;;;;;;;;;;;;;5015476;28;19928;-78
2021/11/23 01:48:55;;;;;;;;;;;;;;;;;;5014322;28;19919;-78
2021/11/23 01:51:21;;;;;;;;;;;;;;;;;;5012165;28;19967;-78
2021/11/23 01:53:47;;;;;;;;;;;;;;;;;;5014011;28;20369;-79
2021/11/23 01:56:13;;;;;;;;;;;;;;;;;;5014787;28;20267;-79
2021/11/23 01:58:39;;;;;;;;;;;;;;;;;;5016442;28;19960;-78
2021/11/23 02:01:08;;;;;;;;;;;;;;;;;;5010747;28;19921;-78
2021/11/23 02:03:34;;;;;;;;;;;;;;;;;;5011564;28;20190;-79
2021/11/23 02:05:59;;;;;;;;;;;;;;;;;;5018096;28;19921;-78
2021/11/23 02:08:25;;;;;;;;;;;;;;;;;;5014240;28;19975;-78
2021/11/23 02:10:51;;;;;;;;;;;;;;;;;;5010047;28;19924;-79
2021/11/23 02:13:17;;;;;;;;;;;;;;;;;;5010645;28;19952;-78
2021/11/23 02:15:43;;;;;;;;;;;;;;;;;;5013746;28;20316;-78
2021/11/23 02:18:09;;;;;;;;;;;;;;;;;;5017537;28;19924;-78
2021/11/23 02:20:35;;;;;;;;;;;;;;;;;;5009560;28;19917;-78
2021/11/23 02:23:01;;;;;;;;;;;;;;;;;;5008151;28;20401;-78
2021/11/23 02:25:27;;;;;;;;;;;;;;;;;;5014284;28;19914;-78
2021/11/23 02:27:53;;;;;;;;;;;;;;;;;;5006967;28;19917;-77
2021/11/23 02:30:19;;;;;;;;;;;;;;;;;;5009792;28;19917;-78
2021/11/23 02:32:51;;;;;;;;;;;;;;;;;;5012752;28;20393;-78
2021/11/23 02:35:19;;;;;;;;;;;;;;;;;;5018839;28;20193;-78
2021/11/23 02:37:44;;;;;;;;;;;;;;;;;;5013302;28;19956;-78
2021/11/23 02:40:10;;;;;;;;;;;;;;;;;;5012731;28;20255;-78
2021/11/23 02:42:36;;;;;;;;;;;;;;;;;;5015974;28;19953;-78
2021/11/23 02:45:02;;;;;;;;;;;;;;;;;;5017230;28;20000;-78
2021/11/23 02:47:28;;;;;;;;;;;;;;;;;;5010726;28;19918;-78
2021/11/23 02:49:54;;;;;;;;;;;;;;;;;;5012080;28;19936;-78
2021/11/23 02:52:20;;;;;;;;;;;;;;;;;;5005507;28;20052;-78
2021/11/23 02:54:46;;;;;;;;;;;;;;;;;;5006954;28;19917;-79
2021/11/23 02:57:11;;;;;;;;;;;;;;;;;;5011992;28;19917;-79
2021/11/23 02:59:37;;;;;;;;;;;;;;;;;;5011217;28;19917;-79
2021/11/23 03:02:03;;;;;;;;;;;;;;;;;;5011566;28;19925;-78
2021/11/23 03:04:29;;;;;;;;;;;;;;;;;;5013564;28;19917;-78
2021/11/23 03:06:55;;;;;;;;;;;;;;;;;;5012083;28;20448;-78
2021/11/23 03:09:21;;;;;;;;;;;;;;;;;;5013578;28;19920;-79
2021/11/23 03:11:47;;;;;;;;;;;;;;;;;;5008154;28;19924;-78
2021/11/23 03:14:13;;;;;;;;;;;;;;;;;;5009881;28;20031;-79
2021/11/23 03:16:38;;;;;;;;;;;;;;;;;;5017247;28;20012;-79
2021/11/23 03:19:05;;;;;;;;;;;;;;;;;;5011330;28;20580;-79
2021/11/23 03:21:30;;;;;;;;;;;;;;;;;;5015644;28;19917;-78
2021/11/23 03:23:56;;;;;;;;;;;;;;;;;;5018044;28;19928;-77
2021/11/23 03:26:22;;;;;;;;;;;;;;;;;;5009904;28;20008;-79
2021/11/23 03:28:48;;;;;;;;;;;;;;;;;;5014940;28;20397;-78
2021/11/23 03:31:15;;;;;;;;;;;;;;;;;;5013036;28;19921;-78
2021/11/23 03:33:41;;;;;;;;;;;;;;;;;;5009170;28;19931;-77
2021/11/23 03:36:07;;;;;;;;;;;;;;;;;;5015084;28;20288;-79
2021/11/23 03:38:33;;;;;;;;;;;;;;;;;;5009665;28;19917;-77
2021/11/23 03:40:59;;;;;;;;;;;;;;;;;;5010612;28;19940;-78
2021/11/23 03:43:25;;;;;;;;;;;;;;;;;;5014117;28;19940;-78
2021/11/23 03:45:50;;;;;;;;;;;;;;;;;;5020074;28;19920;-78
2021/11/23 03:48:16;;;;;;;;;;;;;;;;;;5012391;28;19930;-78
2021/11/23 03:50:42;;;;;;;;;;;;;;;;;;5016311;28;20168;-78
2021/11/23 03:53:08;;;;;;;;;;;;;;;;;;5005728;28;19913;-78
2021/11/23 03:55:36;;;;;;;;;;;;;;;;;;5009365;28;20641;-79
2021/11/23 03:58:02;;;;;;;;;;;;;;;;;;5006375;28;19979;-79
2021/11/23 04:00:28;;;;;;;;;;;;;;;;;;5009872;28;19964;-78
2021/11/23 04:02:54;;;;;;;;;;;;;;;;;;5009132;28;19963;-78
2021/11/23 04:05:20;;;;;;;;;;;;;;;;;;5003608;28;20420;-79
2021/11/23 04:07:46;;;;;;;;;;;;;;;;;;5012668;28;20141;-78
2021/11/23 04:10:12;;;;;;;;;;;;;;;;;;5011211;28;20370;-77
2021/11/23 04:12:38;;;;;;;;;;;;;;;;;;5012728;28;19953;-78
2021/11/23 04:15:04;;;;;;;;;;;;;;;;;;5007757;28;19923;-78
2021/11/23 04:17:29;;;;;;;;;;;;;;;;;;5011903;28;20373;-78
2021/11/23 04:19:55;;;;;;;;;;;;;;;;;;5009665;28;20375;-78
2021/11/23 04:22:21;;;;;;;;;;;;;;;;;;5015337;28;19922;-79
2021/11/23 04:24:47;;;;;;;;;;;;;;;;;;5005494;28;20390;-78
2021/11/23 04:27:13;;;;;;;;;;;;;;;;;;5010785;28;19918;-78
2021/11/23 04:29:39;;;;;;;;;;;;;;;;;;5005125;28;19963;-79
2021/11/23 04:32:05;;;;;;;;;;;;;;;;;;5009865;28;20020;-79
2021/11/23 04:34:31;;;;;;;;;;;;;;;;;;5014502;28;19913;-78
2021/11/23 04:36:57;;;;;;;;;;;;;;;;;;5016161;28;20317;-78
2021/11/23 04:39:22;;;;;;;;;;;;;;;;;;5013025;28;20108;-79
2021/11/23 04:41:48;;;;;;;;;;;;;;;;;;5012419;28;20447;-77
2021/11/23 04:44:14;;;;;;;;;;;;;;;;;;5008081;28;19921;-78
2021/11/23 04:46:40;;;;;;;;;;;;;;;;;;5008347;28;20372;-78
2021/11/23 04:49:06;;;;;;;;;;;;;;;;;;5015904;28;19920;-78
2021/11/23 04:51:32;;;;;;;;;;;;;;;;;;5008853;28;20012;-78
2021/11/23 04:53:58;;;;;;;;;;;;;;;;;;5011846;28;20209;-78
2021/11/23 04:56:24;;;;;;;;;;;;;;;;;;5014557;28;19917;-77
2021/11/23 04:58:50;;;;;;;;;;;;;;;;;;5011373;28;20435;-78
2021/11/23 05:01:15;;;;;;;;;;;;;;;;;;5007680;28;20004;-78
2021/11/23 05:03:41;;;;;;;;;;;;;;;;;;5008183;28;20247;-78
2021/11/23 05:06:07;;;;;;;;;;;;;;;;;;5020157;28;19920;-79
2021/11/23 05:08:33;;;;;;;;;;;;;;;;;;5015381;28;20024;-78
2021/11/23 05:10:59;;;;;;;;;;;;;;;;;;5012044;28;19922;-79
2021/11/23 05:13:25;;;;;;;;;;;;;;;;;;5007419;28;19917;-79
2021/11/23 05:15:51;;;;;;;;;;;;;;;;;;5014933;28;20612;-79
2021/11/23 05:18:17;;;;;;;;;;;;;;;;;;5012418;28;19951;-79
2021/11/23 05:20:43;;;;;;;;;;;;;;;;;;5013105;28;19917;-78
2021/11/23 05:23:09;;;;;;;;;;;;;;;;;;5016453;28;19913;-78
2021/11/23 05:25:35;;;;;;;;;;;;;;;;;;5014136;28;19959;-79
2021/11/23 05:28:01;;;;;;;;;;;;;;;;;;5013869;28;19920;-78
2021/11/23 05:30:27;;;;;;;;;;;;;;;;;;5011403;28;19927;-78
2021/11/23 05:32:53;;;;;;;;;;;;;;;;;;5017292;28;19951;-78
2021/11/23 05:35:19;;;;;;;;;;;;;;;;;;5014426;28;20016;-78
2021/11/23 05:37:45;;;;;;;;;;;;;;;;;;5012612;28;20008;-78
2021/11/23 05:40:11;;;;;;;;;;;;;;;;;;5012078;28;19921;-78
2021/11/23 05:42:37;;;;;;;;;;;;;;;;;;5009451;28;19917;-78
2021/11/23 05:45:03;;;;;;;;;;;;;;;;;;5019169;28;19914;-78
2021/11/23 05:47:29;;;;;;;;;;;;;;;;;;5011428;28;19991;-78
2021/11/23 05:49:55;;;;;;;;;;;;;;;;;;5013995;28;20020;-78
2021/11/23 05:52:21;;;;;;;;;;;;;;;;;;5010037;28;20032;-78
2021/11/23 05:54:47;;;;;;;;;;;;;;;;;;5020928;28;20000;-79
2021/11/23 05:57:13;;;;;;;;;;;;;;;;;;5015703;28;19913;-79
2021/11/23 05:59:39;;;;;;;;;;;;;;;;;;5011845;28;20273;-79
2021/11/23 06:02:05;;;;;;;;;;;;;;;;;;5010934;28;19917;-79
2021/11/23 08:03:53;;;;;;;;;;;;;;;;;;5010844;28;19996;-76
2021/11/23 08:06:19;;;;;;;;;;;;;;;;;;5013878;28;19926;-77
2021/11/23 08:08:45;;;;;;;;;;;;;;;;;;5014932;28;19940;-77
2021/11/23 08:11:11;;;;;;;;;;;;;;;;;;5021806;28;19917;-76
2021/11/23 08:13:37;;;;;;;;;;;;;;;;;;5008418;28;20421;-77
2021/11/23 08:16:04;;;;;;;;;;;;;;;;;;5012746;28;20016;-76
2021/11/23 08:18:30;;;;;;;;;;;;;;;;;;5019527;28;20030;-77
2021/11/23 08:20:56;;;;;;;;;;;;;;;;;;5018506;28;19932;-77
2021/11/23 08:23:22;;;;;;;;;;;;;;;;;;5025342;28;20357;-76
2021/11/23 08:25:48;;;;;;;;;;;;;;;;;;5027292;28;19917;-76
2021/11/23 08:28:14;;;;;;;;;;;;;;;;;;5047165;28;19973;-76
2021/11/23 08:30:40;;;;;;;;;;;;;;;;;;5019216;28;19917;-77
2021/11/23 08:33:06;;;;;;;;;;;;;;;;;;5022751;28;19960;-76
2021/11/23 08:35:32;;;;;;;;;;;;;;;;;;5029695;28;19913;-76
2021/11/23 08:37:58;;;;;;;;;;;;;;;;;;5034149;28;20008;-76
2021/11/23 08:40:23;;;;;;;;;;;;;;;;;;5023233;28;19924;-78
2021/11/23 08:42:51;;;;;;;;;;;;;;;;;;5020580;28;19969;-77
2021/11/23 08:45:17;;;;;;;;;;;;;;;;;;5023181;28;19913;-77
2021/11/23 08:47:43;;;;;;;;;;;;;;;;;;5027212;28;19932;-76
2021/11/23 08:50:09;;;;;;;;;;;;;;;;;;5026774;28;19924;-76
2021/11/23 08:52:35;;;;;;;;;;;;;;;;;;5042577;28;19913;-77
2021/11/23 08:55:01;;;;;;;;;;;;;;;;;;5021236;28;20381;-77
2021/11/23 08:57:27;;;;;;;;;;;;;;;;;;5024772;28;19913;-76
2021/11/23 09:00:08;;;;;;;;;;;;;;;;;;5015646;28;20008;-76
2021/11/23 09:02:34;;;;;;;;;;;;;;;;;;5018577;28;20008;-78
2021/11/23 09:05:00;;;;;;;;;;;;;;;;;;5019353;28;20015;-76
2021/11/23 09:07:26;;;;;;;;;;;;;;;;;;5020565;28;19920;-77
2021/11/23 09:09:52;;;;;;;;;;;;;;;;;;5033109;28;19913;-77
2021/11/23 09:12:18;;;;;;;;;;;;;;;;;;5018424;28;20008;-76
2021/11/23 09:14:44;;;;;;;;;;;;;;;;;;5021213;28;19917;-77
2021/11/23 09:17:10;;;;;;;;;;;;;;;;;;5016288;28;19925;-77
2021/11/23 09:19:36;;;;;;;;;;;;;;;;;;5020738;28;19956;-76
2021/11/23 09:22:02;;;;;;;;;;;;;;;;;;5023243;28;19992;-77
2021/11/23 09:24:28;;;;;;;;;;;;;;;;;;5024034;28;19996;-76
2021/11/23 09:26:54;;;;;;;;;;;;;;;;;;5020955;28;19921;-77
2021/11/23 09:29:20;;;;;;;;;;;;;;;;;;5017005;28;19913;-77
2021/11/23 09:31:46;;;;;;;;;;;;;;;;;;5033675;28;20589;-78
2021/11/23 09:34:12;;;;;;;;;;;;;;;;;;5038897;28;19960;-77
2021/11/23 09:36:38;;;;;;;;;;;;;;;;;;5019812;28;19913;-77
2021/11/23 09:39:04;;;;;;;;;;;;;;;;;;5021595;28;20072;-77
2021/11/23 09:41:33;;;;;;;;;;;;;;;;;;5028402;28;19917;-77
2021/11/23 09:43:59;;;;;;;;;;;;;;;;;;5020784;28;20270;-77
2021/11/23 09:46:25;;;;;;;;;;;;;;;;;;5023154;28;19913;-77
2021/11/23 09:48:51;;;;;;;;;;;;;;;;;;5018709;28;19913;-78
2021/11/23 09:51:17;;;;;;;;;;;;;;;;;;5027260;28;20004;-77
2021/11/23 09:53:43;;;;;;;;;;;;;;;;;;5014080;28;19914;-78
2021/11/23 09:56:09;;;;;;;;;;;;;;;;;;5024335;28;19963;-78
2021/11/23 09:58:35;;;;;;;;;;;;;;;;;;5021651;28;20597;-77
2021/11/23 10:01:01;;;;;;;;;;;;;;;;;;5016979;28;20024;-78
2021/11/23 10:03:27;;;;;;;;;;;;;;;;;;5025338;28;19921;-78
2021/11/23 10:05:53;;;;;;;;;;;;;;;;;;5018524;28;19913;-78
2021/11/23 10:08:19;;;;;;;;;;;;;;;;;;5014343;28;19914;-78
2021/11/23 10:10:45;;;;;;;;;;;;;;;;;;5019745;28;19920;-78
2021/11/23 10:13:12;;;;;;;;;;;;;;;;;;5015082;28;19994;-78
2021/11/23 10:15:45;;;;;;;;;;;;;;;;;;5025299;28;19924;-78
2021/11/23 10:18:11;;;;;;;;;;;;;;;;;;5013886;28;20300;-78
2021/11/23 10:20:37;;;;;;;;;;;;;;;;;;5014191;28;19921;-78
2021/11/23 10:23:03;;;;;;;;;;;;;;;;;;5016168;28;19930;-78
2021/11/23 10:25:28;;;;;;;;;;;;;;;;;;5012339;28;19913;-78
2021/11/23 10:27:54;;;;;;;;;;;;;;;;;;5017402;28;19994;-78
2021/11/23 10:30:20;;;;;;;;;;;;;;;;;;5017749;28;19912;-78
2021/11/23 10:32:46;;;;;;;;;;;;;;;;;;5008571;28;19979;-77
2021/11/23 10:35:12;;;;;;;;;;;;;;;;;;5011296;28;19964;-78
2021/11/23 10:37:38;;;;;;;;;;;;;;;;;;5009141;28;20491;-79
2021/11/23 10:40:04;;;;;;;;;;;;;;;;;;5012727;28;19964;-77
2021/11/23 10:42:30;;;;;;;;;;;;;;;;;;5013253;28;19955;-79
2021/11/23 10:44:56;;;;;;;;;;;;;;;;;;5014285;28;19919;-78
2021/11/23 10:47:22;;;;;;;;;;;;;;;;;;5023587;28;19917;-79
2021/11/23 10:49:51;;;;;;;;;;;;;;;;;;5028049;28;19960;-78
2021/11/23 10:52:17;;;;;;;;;;;;;;;;;;5017941;28;19913;-79
2021/11/23 10:54:43;;;;;;;;;;;;;;;;;;5022303;28;19920;-78
2021/11/23 10:57:10;;;;;;;;;;;;;;;;;;5016444;28;19913;-78
2021/11/23 10:59:37;;;;;;;;;;;;;;;;;;5016387;28;19917;-78
2021/11/23 11:02:03;;;;;;;;;;;;;;;;;;5012682;28;20437;-78
2021/11/23 11:04:29;;;;;;;;;;;;;;;;;;5013238;28;19922;-78
2021/11/23 11:06:55;;;;;;;;;;;;;;;;;;5011256;28;20013;-78
2021/11/23 11:09:21;;;;;;;;;;;;;;;;;;5011743;28;19928;-79
2021/11/23 11:11:47;;;;;;;;;;;;;;;;;;5040010;28;19913;-78
2021/11/23 11:14:13;;;;;;;;;;;;;;;;;;5019313;28;20554;-79
2021/11/23 11:16:38;;;;;;;;;;;;;;;;;;5017707;28;19917;-79
2021/11/23 11:19:04;;;;;;;;;;;;;;;;;;5025987;28;20440;-79
2021/11/23 11:21:33;;;;;;;;;;;;;;;;;;5016790;28;19914;-79
2021/11/23 11:23:59;;;;;;;;;;;;;;;;;;5021588;28;19923;-80
2021/11/23 11:26:28;;;;;;;;;;;;;;;;;;5014034;28;19920;-79
2021/11/23 11:28:54;;;;;;;;;;;;;;;;;;5018672;28;20306;-79
2021/11/23 11:31:20;;;;;;;;;;;;;;;;;;5019305;28;19917;-79
2021/11/23 11:33:46;;;;;;;;;;;;;;;;;;5021917;28;19921;-79
2021/11/23 11:36:12;;;;;;;;;;;;;;;;;;5021086;28;19920;-79
2021/11/23 11:38:38;;;;;;;;;;;;;;;;;;5021674;28;19917;-79
2021/11/23 11:41:04;;;;;;;;;;;;;;;;;;5012230;28;19913;-79
2021/11/23 11:43:30;;;;;;;;;;;;;;;;;;5016286;28;19909;-80
2021/11/23 11:45:56;;;;;;;;;;;;;;;;;;5023536;28;19959;-80
2021/11/23 11:48:22;;;;;;;;;;;;;;;;;;5024339;28;19925;-79
2021/11/23 11:50:48;;;;;;;;;;;;;;;;;;5021666;28;19909;-81
2021/11/23 11:53:15;;;;;;;;;;;;;;;;;;5023093;28;19917;-80
2021/11/23 11:55:53;;;;;;;;;;;;;;;;;;5023385;28;19963;-80
2021/11/23 11:58:19;;;;;;;;;;;;;;;;;;5029019;28;19913;-80
2021/11/23 12:00:45;;;;;;;;;;;;;;;;;;5024343;28;19913;-80
2021/11/23 12:03:13;;;;;;;;;;;;;;;;;;5017248;28;20052;-81
2021/11/23 12:05:39;;;;;;;;;;;;;;;;;;5020037;28;20051;-80
2021/11/23 12:08:05;;;;;;;;;;;;;;;;;;5019008;28;19981;-81
2021/11/23 12:10:34;;;;;;;;;;;;;;;;;;5015183;28;19921;-81
2021/11/23 12:13:00;;;;;;;;;;;;;;;;;;5020631;28;20677;-80
2021/11/23 12:15:28;;;;;;;;;;;;;;;;;;5026328;28;20004;-82
2021/11/23 12:17:57;;;;;;;;;;;;;;;;;;5025885;28;19921;-83
2021/11/23 12:20:23;;;;;;;;;;;;;;;;;;5014239;28;20445;-80
2021/11/23 12:22:50;;;;;;;;;;;;;;;;;;5031779;28;19949;-79
2021/11/23 12:25:19;;;;;;;;;;;;;;;;;;5030498;28;19941;-79
2021/11/23 12:27:46;;;;;;;;;;;;;;;;;;5021792;28;19910;-81
2021/11/23 12:35:42;;;;;;;;;;;;;;;;;;5025043;28;19959;-78
2021/11/23 12:38:08;;;;;;;;;;;;;;;;;;5026198;28;20016;-80
2021/11/23 12:40:34;;;;;;;;;;;;;;;;;;5015404;28;20489;-81
2021/11/23 12:43:04;;;;;;;;;;;;;;;;;;5021752;28;19917;-80
2021/11/23 12:45:30;;;;;;;;;;;;;;;;;;5013854;28;19963;-79
2021/11/23 12:47:56;;;;;;;;;;;;;;;;;;5028356;28;20349;-78
2021/11/23 12:50:22;;;;;;;;;;;;;;;;;;5023469;28;19937;-79
2021/11/23 12:52:48;;;;;;;;;;;;;;;;;;5028738;28;19967;-79
2021/11/23 12:55:14;;;;;;;;;;;;;;;;;;5021963;28;20513;-80
2021/11/23 12:57:40;;;;;;;;;;;;;;;;;;5022300;28;19920;-79
2021/11/23 13:00:06;;;;;;;;;;;;;;;;;;5026361;28;19909;-80
2021/11/23 13:02:32;;;;;;;;;;;;;;;;;;5030620;28;20421;-79
2021/11/23 13:04:57;;;;;;;;;;;;;;;;;;5024260;28;19913;-79
2021/11/23 13:07:23;;;;;;;;;;;;;;;;;;5019382;28;19940;-79
2021/11/23 13:09:49;;;;;;;;;;;;;;;;;;5023266;28;19914;-79
2021/11/23 13:12:15;;;;;;;;;;;;;;;;;;5019595;28;19921;-80
2021/11/23 13:14:41;;;;;;;;;;;;;;;;;;5021037;28;19920;-79
2021/11/23 13:17:07;;;;;;;;;;;;;;;;;;5013636;28;20336;-79
2021/11/23 13:19:33;;;;;;;;;;;;;;;;;;5010472;28;19968;-81
2021/11/23 13:21:59;;;;;;;;;;;;;;;;;;5010522;28;19913;-79
2021/11/23 13:24:25;;;;;;;;;;;;;;;;;;5013136;28;20000;-80
2021/11/23 13:26:53;;;;;;;;;;;;;;;;;;5019086;28;19913;-83
2021/11/23 13:29:31;;;;;;;;;;;;;;;;;;5021108;28;19967;-79
2021/11/23 13:31:57;;;;;;;;;;;;;;;;;;5032543;28;20822;-80
2021/11/23 13:34:23;;;;;;;;;;;;;;;;;;5026822;28;20007;-79
2021/11/23 13:36:49;;;;;;;;;;;;;;;;;;5034249;28;19909;-80
2021/11/23 13:39:15;;;;;;;;;;;;;;;;;;5036074;28;20324;-80
2021/11/23 13:41:41;;;;;;;;;;;;;;;;;;5025412;28;20003;-80
2021/11/23 13:44:07;;;;;;;;;;;;;;;;;;5025057;28;20424;-79
2021/11/23 13:46:33;;;;;;;;;;;;;;;;;;5026424;28;19997;-79
2021/11/23 13:48:59;;;;;;;;;;;;;;;;;;5020580;28;19913;-80
2021/11/23 13:51:25;;;;;;;;;;;;;;;;;;5034452;28;19909;-79
2021/11/23 13:53:51;;;;;;;;;;;;;;;;;;5035331;28;20368;-81
2021/11/23 13:56:17;;;;;;;;;;;;;;;;;;5034061;28;19909;-79
2021/11/23 13:58:42;;;;;;;;;;;;;;;;;;5034245;28;19917;-79
2021/11/23 14:01:08;;;;;;;;;;;;;;;;;;5034071;28;20424;-81
2021/11/23 14:03:34;;;;;;;;;;;;;;;;;;5035036;28;19925;-80
2021/11/23 14:06:00;;;;;;;;;;;;;;;;;;5049768;28;19964;-81
2021/11/23 14:08:29;;;;;;;;;;;;;;;;;;5042509;28;19924;-81
2021/11/23 14:10:54;;;;;;;;;;;;;;;;;;5055399;28;19913;-80
2021/11/23 14:13:20;;;;;;;;;;;;;;;;;;5052491;28;19908;-79
2021/11/23 14:15:46;;;;;;;;;;;;;;;;;;5053156;28;19913;-79
2021/11/23 14:18:12;;;;;;;;;;;;;;;;;;5019594;28;20375;-80
2021/11/23 14:20:38;;;;;;;;;;;;;;;;;;5014438;28;19909;-80
2021/11/23 14:23:04;;;;;;;;;;;;;;;;;;5020072;28;20285;-80
2021/11/23 14:25:31;;;;;;;;;;;;;;;;;;5054952;28;20529;-80
2021/11/23 14:27:57;;;;;;;;;;;;;;;;;;5053212;28;19931;-79
2021/11/23 14:30:23;;;;;;;;;;;;;;;;;;5032852;28;19913;-80
2021/11/23 14:32:49;;;;;;;;;;;;;;;;;;5033410;28;19935;-81
2021/11/23 14:35:15;;;;;;;;;;;;;;;;;;5033025;28;20407;-80
2021/11/23 14:37:41;;;;;;;;;;;;;;;;;;5046563;28;19954;-80
2021/11/23 14:40:07;;;;;;;;;;;;;;;;;;5053661;28;20414;-80
2021/11/23 14:42:33;;;;;;;;;;;;;;;;;;5015448;28;20461;-80
2021/11/23 14:44:59;;;;;;;;;;;;;;;;;;5027381;28;20001;-80
2021/11/23 14:47:25;;;;;;;;;;;;;;;;;;5053525;28;19920;-81
2021/11/23 14:49:51;;;;;;;;;;;;;;;;;;5053053;28;19909;-80
2021/11/23 14:52:17;;;;;;;;;;;;;;;;;;5034205;28;19909;-80
2021/11/23 14:54:42;;;;;;;;;;;;;;;;;;5033920;28;19909;-80
2021/11/23 14:57:08;;;;;;;;;;;;;;;;;;5032568;28;19968;-80
2021/11/23 14:59:34;;;;;;;;;;;;;;;;;;5020997;28;20035;-80
2021/11/23 15:02:00;;;;;;;;;;;;;;;;;;5025600;28;20274;-80
2021/11/23 15:04:26;;;;;;;;;;;;;;;;;;5025739;28;20444;-80
2021/11/23 15:06:52;;;;;;;;;;;;;;;;;;5039745;28;19913;-80
2021/11/23 15:09:19;;;;;;;;;;;;;;;;;;5051931;28;19913;-80
2021/11/23 15:11:45;;;;;;;;;;;;;;;;;;5053916;28;19909;-79
2021/11/23 15:14:11;;;;;;;;;;;;;;;;;;5036658;28;19952;-80
2021/11/23 15:16:38;;;;;;;;;;;;;;;;;;5024252;28;19916;-80
2021/11/23 15:19:04;;;;;;;;;;;;;;;;;;5012769;28;19917;-80
2021/11/23 15:21:30;;;;;;;;;;;;;;;;;;5012089;28;19932;-80
2021/11/23 15:23:56;;;;;;;;;;;;;;;;;;5012600;28;19913;-80
2021/11/23 15:26:22;;;;;;;;;;;;;;;;;;5014335;28;19909;-80
2021/11/23 15:28:48;;;;;;;;;;;;;;;;;;5012690;28;20371;-80
2021/11/23 15:31:14;;;;;;;;;;;;;;;;;;5014529;28;20005;-80
2021/11/23 15:33:39;;;;;;;;;;;;;;;;;;5011959;28;19963;-80
2021/11/23 15:36:05;;;;;;;;;;;;;;;;;;5013394;28;20784;-80
2021/11/23 15:38:31;;;;;;;;;;;;;;;;;;5051767;28;19921;-81
2021/11/23 15:41:00;;;;;;;;;;;;;;;;;;5040505;28;19959;-81
2021/11/23 15:43:26;;;;;;;;;;;;;;;;;;5037756;28;19913;-80
2021/11/23 15:45:52;;;;;;;;;;;;;;;;;;5032732;28;19917;-80
2021/11/23 15:48:18;;;;;;;;;;;;;;;;;;5032828;28;19917;-80
2021/11/23 15:50:44;;;;;;;;;;;;;;;;;;5050599;28;19912;-80
2021/11/23 15:53:12;;;;;;;;;;;;;;;;;;5051713;28;20005;-80
2021/11/23 15:55:40;;;;;;;;;;;;;;;;;;5039225;28;19909;-80
2021/11/23 15:58:06;;;;;;;;;;;;;;;;;;5031550;28;20000;-80
2021/11/23 16:00:32;;;;;;;;;;;;;;;;;;5031392;28;19909;-80
2021/11/23 16:02:58;;;;;;;;;;;;;;;;;;5030992;28;19923;-80
2021/11/23 16:05:24;;;;;;;;;;;;;;;;;;5030958;28;19940;-80
2021/11/23 16:07:49;;;;;;;;;;;;;;;;;;5025050;28;19916;-81
2021/11/23 16:10:15;;;;;;;;;;;;;;;;;;5042179;28;19963;-80
2021/11/23 16:12:41;;;;;;;;;;;;;;;;;;5044873;28;19967;-80
2021/11/23 16:15:07;;;;;;;;;;;;;;;;;;5045329;28;19912;-80
2021/11/23 16:17:36;;;;;;;;;;;;;;;;;;5026933;28;19960;-80
2021/11/23 16:20:02;;;;;;;;;;;;;;;;;;5006450;28;20484;-79
2021/11/23 16:22:28;;;;;;;;;;;;;;;;;;5007381;28;20202;-80
2021/11/23 16:24:54;;;;;;;;;;;;;;;;;;5008033;28;19917;-80
2021/11/23 16:27:20;;;;;;;;;;;;;;;;;;5006096;28;20206;-80
2021/11/23 16:29:46;;;;;;;;;;;;;;;;;;5006402;28;19910;-80
2021/11/23 16:32:13;;;;;;;;;;;;;;;;;;5007209;28;19909;-79
2021/11/23 16:34:42;;;;;;;;;;;;;;;;;;5007857;28;20341;-80
2021/11/23 16:37:08;;;;;;;;;;;;;;;;;;5006246;28;20322;-80
2021/11/23 16:39:34;;;;;;;;;;;;;;;;;;5021155;28;19972;-80
2021/11/23 16:42:00;;;;;;;;;;;;;;;;;;5022007;28;19975;-80
2021/11/23 16:44:25;;;;;;;;;;;;;;;;;;5005847;28;19905;-79
2021/11/23 16:46:51;;;;;;;;;;;;;;;;;;5006087;28;20638;-79
2021/11/23 16:49:19;;;;;;;;;;;;;;;;;;5006067;28;20274;-80
2021/11/23 16:51:46;;;;;;;;;;;;;;;;;;5009236;28;20508;-80
2021/11/23 16:54:12;;;;;;;;;;;;;;;;;;5025463;28;19909;-79
2021/11/23 16:56:37;;;;;;;;;;;;;;;;;;5025540;28;20414;-79
2021/11/23 16:59:03;;;;;;;;;;;;;;;;;;5029683;28;19913;-79
2021/11/23 17:01:29;;;;;;;;;;;;;;;;;;5029908;28;20298;-79
2021/11/23 17:03:55;;;;;;;;;;;;;;;;;;5030949;28;19921;-80
2021/11/23 17:06:21;;;;;;;;;;;;;;;;;;5030171;28;19909;-80
2021/11/23 17:08:47;;;;;;;;;;;;;;;;;;5029609;28;19917;-79
2021/11/23 17:11:13;;;;;;;;;;;;;;;;;;5029934;28;20000;-80
2021/11/23 17:13:39;;;;;;;;;;;;;;;;;;5028102;28;19913;-79
2021/11/23 17:16:04;;;;;;;;;;;;;;;;;;5029335;28;20277;-79
2021/11/23 17:18:30;;;;;;;;;;;;;;;;;;5031099;28;19913;-79
2021/11/23 17:20:56;;;;;;;;;;;;;;;;;;5030994;28;19913;-79
2021/11/23 17:23:22;;;;;;;;;;;;;;;;;;5030634;28;19913;-80
2021/11/23 17:25:49;;;;;;;;;;;;;;;;;;5029477;28;19940;-79
2021/11/23 17:28:15;;;;;;;;;;;;;;;;;;5030353;28;19913;-79
2021/11/23 17:30:41;;;;;;;;;;;;;;;;;;5023965;28;19914;-79
2021/11/23 17:33:08;;;;;;;;;;;;;;;;;;5013702;28;19917;-79
2021/11/23 17:35:34;;;;;;;;;;;;;;;;;;5016181;28;19917;-79
2021/11/23 17:38:00;;;;;;;;;;;;;;;;;;5017149;28;19920;-80
2021/11/23 17:40:26;;;;;;;;;;;;;;;;;;5015772;28;19918;-79
2021/11/23 17:42:52;;;;;;;;;;;;;;;;;;5017982;28;19924;-79
2021/11/23 17:45:18;;;;;;;;;;;;;;;;;;5012398;28;19913;-79
2021/11/23 17:47:44;;;;;;;;;;;;;;;;;;5025118;28;19912;-79
2021/11/23 17:50:10;;;;;;;;;;;;;;;;;;5017531;28;19980;-79
2021/11/23 17:52:36;;;;;;;;;;;;;;;;;;5008537;28;19914;-79
2021/11/23 17:55:02;;;;;;;;;;;;;;;;;;5008210;28;20388;-79
2021/11/23 17:57:28;;;;;;;;;;;;;;;;;;5008896;28;19913;-80
2021/11/23 17:59:54;;;;;;;;;;;;;;;;;;5015109;28;20565;-79
2021/11/23 18:02:20;;;;;;;;;;;;;;;;;;5016634;28;19917;-80
2021/11/23 18:04:47;;;;;;;;;;;;;;;;;;5017053;28;19976;-79
2021/11/23 18:07:13;;;;;;;;;;;;;;;;;;5016399;28;19921;-79
2021/11/23 18:09:42;;;;;;;;;;;;;;;;;;5012313;28;19913;-79
2021/11/23 18:12:08;;;;;;;;;;;;;;;;;;5009651;28;19925;-79
2021/11/23 18:14:34;;;;;;;;;;;;;;;;;;5018706;28;20349;-79
2021/11/23 18:17:00;;;;;;;;;;;;;;;;;;5018422;28;19920;-78
2021/11/23 18:19:27;;;;;;;;;;;;;;;;;;5009262;28;19918;-79
2021/11/23 18:21:53;;;;;;;;;;;;;;;;;;5020562;28;20400;-79
2021/11/23 18:24:19;;;;;;;;;;;;;;;;;;5010304;28;19918;-79
2021/11/23 18:26:45;;;;;;;;;;;;;;;;;;5016357;28;20372;-80
2021/11/23 18:29:10;;;;;;;;;;;;;;;;;;5020089;28;19971;-79
2021/11/23 18:31:36;;;;;;;;;;;;;;;;;;5012614;28;19913;-79
2021/11/23 18:34:02;;;;;;;;;;;;;;;;;;5026437;28;19932;-79
2021/11/23 18:36:28;;;;;;;;;;;;;;;;;;5022862;28;19913;-79
2021/11/23 18:38:54;;;;;;;;;;;;;;;;;;5022220;28;19917;-79
2021/11/23 18:41:22;;;;;;;;;;;;;;;;;;5018514;28;20233;-79
2021/11/23 18:43:48;;;;;;;;;;;;;;;;;;5028591;28;19913;-78